Perito Moreno, Argentina

6:10 PM ART en Febrero 11, 2016 (GMT -0300)
Balmaceda | | Change Station
CLOSE
Current Station
Aeropuerto
Location: Balmaceda,
Altura: 1719 ft
Estaciones meteorológicas cercanas

Alt 1719 ft 45.91 °S, 71.69 °W | Updated 10 minutes ago

Mostly Cloudy
Muy nublado
68 ° F
Sensación térmica 68 ° F
N
28
Viento Variable Viento desde ONO

Hoy
Alta -- | Baja -- ° F
--% Posibilidad de precipitaciones
Ayer
Alta -- | Baja -- ° F
Precip. -- pul
Presión 29.71 pul
Visibilidad 6.2 Millas
Nubes Muy nublado 4000 ft
Punto de rocío 48 ° F
Humedad 49%
Precipitaciones 0.00 pul
Espesor de la nieve No disponible.
6:51 AM 9:04 PM
Creciente, 14% visible
METAR SCBA 112100Z 30024KT 9999 BKN040 20/09 Q1006
Presión 29.71 pul
Visibilidad 6.2 Millas
Nubes Muy nublado 4000 ft
Punto de rocío 48 ° F
Humedad 49%
Precipitaciones 0.00 pul
Espesor de la nieve No disponible.
6:51 AM 9:04 PM
Creciente, 14% visible
METAR SCBA 112100Z 30024KT 9999 BKN040 20/09 Q1006

10-Day Weather Forecast

No radar image for this location.
×

Almanac

Astronomía

Feb. 11, 2016 Salida Puesta
Hora real
Crepúsculo civil
Crepúsculo náutico
Crepúsculo astronómico
Luna
Horas de luz
Horas de luz
Tomorrow will be .
, % of the Moon is Illuminated

Extremos de hoy

Máximos del país Bajas del país

Community

WunderPhotos

Upload Photos

1,892,155 ¡fotos cargadas!

WunderBlog® & News

Nearby

Calidad del aire

  Calidad del aire Índice AQ Contaminante
Not available.

Grosos de nieve

Estación Profundido Altura

Actividad de terremotos

Ciudad Distance Mag. Tiempo y dato
Magnitud mínima muestra es 2,5.

Temperaturas de aguas costeras

Lugar Temperatura

Stations

Estaciones meteorológicas cercanas

Ubicación de la estación Temp. Vientos helados Punto de rocío Humedad Viento Precip. Alt Actualizado Tipo